sensor_id;sensor_type;location;lat;lon;timestamp;pressure;altitude;pressure_sealevel;temperature;humidity
21980;BME280;11154;48.558;9.234;2023-03-25T00:00:39;96924.25;;;14.05;69.44
21980;BME280;11154;48.558;9.234;2023-03-25T00:02:45;96923.03;;;14.08;69.75
21980;BME280;11154;48.558;9.234;2023-03-25T00:04:52;96934.94;;;14.05;71.49
21980;BME280;11154;48.558;9.234;2023-03-25T00:06:54;96953.84;;;14.04;72.83
21980;BME280;11154;48.558;9.234;2023-03-25T00:08:56;96964.31;;;13.99;74.07
21980;BME280;11154;48.558;9.234;2023-03-25T00:10:59;96963.50;;;13.98;75.26
21980;BME280;11154;48.558;9.234;2023-03-25T00:13:02;96964.09;;;14.00;74.77
21980;BME280;11154;48.558;9.234;2023-03-25T00:15:06;96965.31;;;13.98;74.93
21980;BME280;11154;48.558;9.234;2023-03-25T00:17:08;96974.34;;;13.90;74.35
21980;BME280;11154;48.558;9.234;2023-03-25T00:19:13;96978.41;;;13.86;74.40
21980;BME280;11154;48.558;9.234;2023-03-25T00:21:16;96967.28;;;13.83;73.90
21980;BME280;11154;48.558;9.234;2023-03-25T00:23:18;96967.69;;;13.80;74.96
21980;BME280;11154;48.558;9.234;2023-03-25T00:25:20;96964.13;;;13.73;75.76
21980;BME280;11154;48.558;9.234;2023-03-25T00:27:24;96948.88;;;13.67;76.03
21980;BME280;11154;48.558;9.234;2023-03-25T00:29:25;96963.66;;;13.63;76.15
21980;BME280;11154;48.558;9.234;2023-03-25T00:31:27;96967.28;;;13.56;75.88
21980;BME280;11154;48.558;9.234;2023-03-25T00:33:29;96965.38;;;13.50;75.91
21980;BME280;11154;48.558;9.234;2023-03-25T00:35:32;96974.41;;;13.49;75.87
21980;BME280;11154;48.558;9.234;2023-03-25T00:37:36;96978.69;;;13.43;75.79
21980;BME280;11154;48.558;9.234;2023-03-25T00:39:37;96969.38;;;13.39;75.46
21980;BME280;11154;48.558;9.234;2023-03-25T00:41:39;96966.28;;;13.36;74.21
21980;BME280;11154;48.558;9.234;2023-03-25T00:43:43;96955.78;;;13.34;73.08
21980;BME280;11154;48.558;9.234;2023-03-25T00:45:44;96964.44;;;13.36;72.60
21980;BME280;11154;48.558;9.234;2023-03-25T00:47:46;96963.59;;;13.36;72.48
21980;BME280;11154;48.558;9.234;2023-03-25T00:49:48;96963.59;;;13.36;72.45
21980;BME280;11154;48.558;9.234;2023-03-25T00:51:51;96959.09;;;13.36;72.41
21980;BME280;11154;48.558;9.234;2023-03-25T00:53:55;96957.25;;;13.37;72.48
21980;BME280;11154;48.558;9.234;2023-03-25T00:55:59;96959.09;;;13.36;72.84
21980;BME280;11154;48.558;9.234;2023-03-25T00:58:01;96942.88;;;13.38;72.79
21980;BME280;11154;48.558;9.234;2023-03-25T01:00:06;96939.78;;;13.34;72.55
21980;BME280;11154;48.558;9.234;2023-03-25T01:02:08;96935.63;;;13.32;72.62
21980;BME280;11154;48.558;9.234;2023-03-25T01:04:11;96936.84;;;13.29;72.75
21980;BME280;11154;48.558;9.234;2023-03-25T01:06:14;96932.31;;;13.30;72.34
21980;BME280;11154;48.558;9.234;2023-03-25T01:08:16;96921.66;;;13.30;72.34
21980;BME280;11154;48.558;9.234;2023-03-25T01:10:20;96922.88;;;13.27;71.72
21980;BME280;11154;48.558;9.234;2023-03-25T01:12:22;96920.19;;;13.27;71.77
21980;BME280;11154;48.558;9.234;2023-03-25T01:14:23;96917.06;;;13.24;71.52
21980;BME280;11154;48.558;9.234;2023-03-25T01:16:27;96921.81;;;13.22;71.22
21980;BME280;11154;48.558;9.234;2023-03-25T01:18:29;96930.19;;;13.19;71.67
21980;BME280;11154;48.558;9.234;2023-03-25T01:20:34;96935.06;;;13.15;72.21
21980;BME280;11154;48.558;9.234;2023-03-25T01:22:36;96935.47;;;13.12;72.41
21980;BME280;11154;48.558;9.234;2023-03-25T01:24:37;96936.22;;;13.06;72.43
21980;BME280;11154;48.558;9.234;2023-03-25T01:26:41;96930.06;;;13.06;72.48
21980;BME280;11154;48.558;9.234;2023-03-25T01:28:45;96924.72;;;13.06;72.65
21980;BME280;11154;48.558;9.234;2023-03-25T01:30:46;96910.72;;;13.04;72.95
21980;BME280;11154;48.558;9.234;2023-03-25T01:32:48;96922.81;;;13.00;72.86
21980;BME280;11154;48.558;9.234;2023-03-25T01:34:50;96913.91;;;12.93;73.53
21980;BME280;11154;48.558;9.234;2023-03-25T01:36:51;96915.94;;;12.91;73.83
21980;BME280;11154;48.558;9.234;2023-03-25T01:38:55;96914.69;;;12.87;74.19
21980;BME280;11154;48.558;9.234;2023-03-25T01:40:57;96918.72;;;12.83;74.52
21980;BME280;11154;48.558;9.234;2023-03-25T01:43:00;96915.03;;;12.84;75.08
21980;BME280;11154;48.558;9.234;2023-03-25T01:45:13;96906.41;;;12.82;75.21
21980;BME280;11154;48.558;9.234;2023-03-25T01:47:14;96911.09;;;12.80;75.65
21980;BME280;11154;48.558;9.234;2023-03-25T01:49:19;96905.56;;;12.82;76.09
21980;BME280;11154;48.558;9.234;2023-03-25T01:51:25;96911.72;;;12.82;76.92
21980;BME280;11154;48.558;9.234;2023-03-25T01:53:29;96913.41;;;12.83;77.16
21980;BME280;11154;48.558;9.234;2023-03-25T01:55:34;96913.69;;;12.88;76.96
21980;BME280;11154;48.558;9.234;2023-03-25T01:57:40;96909.34;;;12.87;77.06
21980;BME280;11154;48.558;9.234;2023-03-25T01:59:47;96898.47;;;12.89;77.77
21980;BME280;11154;48.558;9.234;2023-03-25T02:01:50;96863.81;;;11.68;84.10
21980;BME280;11154;48.558;9.234;2023-03-25T02:03:53;96853.47;;;11.22;88.24
21980;BME280;11154;48.558;9.234;2023-03-25T02:06:04;96843.06;;;10.98;91.34
21980;BME280;11154;48.558;9.234;2023-03-25T02:08:08;96847.16;;;10.86;91.63
21980;BME280;11154;48.558;9.234;2023-03-25T02:10:11;96839.25;;;10.78;91.30
21980;BME280;11154;48.558;9.234;2023-03-25T02:12:13;96850.94;;;10.70;92.38
21980;BME280;11154;48.558;9.234;2023-03-25T02:14:17;96846.34;;;10.64;92.04
21980;BME280;11154;48.558;9.234;2023-03-25T02:16:26;96857.16;;;10.62;92.65
21980;BME280;11154;48.558;9.234;2023-03-25T02:18:37;96867.13;;;10.60;93.66
21980;BME280;11154;48.558;9.234;2023-03-25T02:23:37;96853.47;;;10.49;93.26
21980;BME280;11154;48.558;9.234;2023-03-25T02:25:56;96853.78;;;10.46;92.89
21980;BME280;11154;48.558;9.234;2023-03-25T02:28:08;96851.66;;;10.41;93.04
21980;BME280;11154;48.558;9.234;2023-03-25T02:30:32;96857.50;;;10.37;92.36
21980;BME280;11154;48.558;9.234;2023-03-25T02:32:55;96861.19;;;10.36;92.12
21980;BME280;11154;48.558;9.234;2023-03-25T02:35:12;96865.19;;;10.32;91.95
21980;BME280;11154;48.558;9.234;2023-03-25T02:37:53;96877.00;;;10.29;92.32
21980;BME280;11154;48.558;9.234;2023-03-25T02:40:02;96880.47;;;10.30;92.42
21980;BME280;11154;48.558;9.234;2023-03-25T02:42:12;96877.16;;;10.28;92.53
21980;BME280;11154;48.558;9.234;2023-03-25T02:44:21;96890.94;;;10.31;91.64
21980;BME280;11154;48.558;9.234;2023-03-25T02:46:27;96897.06;;;10.32;91.33
21980;BME280;11154;48.558;9.234;2023-03-25T02:48:35;96902.03;;;10.35;91.71
21980;BME280;11154;48.558;9.234;2023-03-25T02:50:40;96900.03;;;10.37;91.91
21980;BME280;11154;48.558;9.234;2023-03-25T02:52:48;96918.97;;;10.34;93.35
21980;BME280;11154;48.558;9.234;2023-03-25T02:54:52;96936.91;;;10.32;94.36
21980;BME280;11154;48.558;9.234;2023-03-25T02:56:58;96937.28;;;10.29;96.75
21980;BME280;11154;48.558;9.234;2023-03-25T02:59:01;96934.38;;;10.16;97.06
21980;BME280;11154;48.558;9.234;2023-03-25T03:01:05;96943.72;;;10.04;96.66
21980;BME280;11154;48.558;9.234;2023-03-25T03:03:09;96937.25;;;9.91;97.75
21980;BME280;11154;48.558;9.234;2023-03-25T03:05:22;96930.84;;;9.69;95.11
21980;BME280;11154;48.558;9.234;2023-03-25T03:07:27;96941.66;;;9.52;94.21
21980;BME280;11154;48.558;9.234;2023-03-25T03:09:38;96900.72;;;9.46;96.39
21980;BME280;11154;48.558;9.234;2023-03-25T03:11:53;96894.09;;;9.34;96.97
21980;BME280;11154;48.558;9.234;2023-03-25T03:14:06;96886.66;;;9.30;98.86
21980;BME280;11154;48.558;9.234;2023-03-25T03:16:14;96897.44;;;9.29;99.37
21980;BME280;11154;48.558;9.234;2023-03-25T03:18:22;96898.78;;;9.25;100.00
21980;BME280;11154;48.558;9.234;2023-03-25T03:20:37;96912.84;;;9.25;100.00
21980;BME280;11154;48.558;9.234;2023-03-25T03:22:43;96915.00;;;9.30;100.00
21980;BME280;11154;48.558;9.234;2023-03-25T03:24:50;96930.59;;;9.32;100.00
21980;BME280;11154;48.558;9.234;2023-03-25T03:26:56;96916.00;;;9.36;100.00
21980;BME280;11154;48.558;9.234;2023-03-25T03:29:05;96915.19;;;9.36;100.00
21980;BME280;11154;48.558;9.234;2023-03-25T03:31:11;96918.97;;;9.41;100.00
21980;BME280;11154;48.558;9.234;2023-03-25T03:33:18;96915.97;;;9.44;100.00
21980;BME280;11154;48.558;9.234;2023-03-25T03:35:27;96913.00;;;9.39;100.00
21980;BME280;11154;48.558;9.234;2023-03-25T03:37:34;96906.06;;;9.31;100.00
21980;BME280;11154;48.558;9.234;2023-03-25T03:39:38;96903.09;;;9.33;100.00
21980;BME280;11154;48.558;9.234;2023-03-25T03:41:42;96890.50;;;9.28;100.00
21980;BME280;11154;48.558;9.234;2023-03-25T03:43:50;96900.56;;;9.32;100.00
21980;BME280;11154;48.558;9.234;2023-03-25T03:45:54;96910.53;;;9.30;100.00
21980;BME280;11154;48.558;9.234;2023-03-25T03:48:01;96910.19;;;9.25;100.00
21980;BME280;11154;48.558;9.234;2023-03-25T03:50:10;96909.38;;;9.17;100.00
21980;BME280;11154;48.558;9.234;2023-03-25T03:52:17;96913.56;;;9.11;99.05
21980;BME280;11154;48.558;9.234;2023-03-25T03:54:23;96912.88;;;9.09;99.48
21980;BME280;11154;48.558;9.234;2023-03-25T03:56:28;96912.53;;;9.28;100.00
21980;BME280;11154;48.558;9.234;2023-03-25T03:58:39;96907.31;;;9.58;100.00
21980;BME280;11154;48.558;9.234;2023-03-25T04:00:43;96952.34;;;9.90;100.00
21980;BME280;11154;48.558;9.234;2023-03-25T04:02:50;96940.84;;;10.44;98.16
21980;BME280;11154;48.558;9.234;2023-03-25T04:04:53;96944.19;;;10.68;93.49
21980;BME280;11154;48.558;9.234;2023-03-25T04:07:02;96943.19;;;10.91;90.98
21980;BME280;11154;48.558;9.234;2023-03-25T04:09:10;96943.72;;;11.09;88.64
21980;BME280;11154;48.558;9.234;2023-03-25T04:11:21;96952.59;;;11.24;87.36
21980;BME280;11154;48.558;9.234;2023-03-25T04:13:27;96949.47;;;11.35;86.21
21980;BME280;11154;48.558;9.234;2023-03-25T04:15:33;96943.53;;;11.48;85.26
21980;BME280;11154;48.558;9.234;2023-03-25T04:17:34;96941.69;;;11.56;84.30
21980;BME280;11154;48.558;9.234;2023-03-25T04:19:36;96949.56;;;11.64;83.90
21980;BME280;11154;48.558;9.234;2023-03-25T04:21:38;96948.47;;;11.73;82.38
21980;BME280;11154;48.558;9.234;2023-03-25T04:23:40;96951.06;;;11.81;82.50
21980;BME280;11154;48.558;9.234;2023-03-25T04:25:42;96951.06;;;11.81;80.31
21980;BME280;11154;48.558;9.234;2023-03-25T04:27:47;96942.97;;;11.89;81.49
21980;BME280;11154;48.558;9.234;2023-03-25T04:29:49;96951.25;;;11.94;81.96
21980;BME280;11154;48.558;9.234;2023-03-25T04:31:53;96951.25;;;11.94;81.18
21980;BME280;11154;48.558;9.234;2023-03-25T04:33:56;96950.88;;;11.97;82.07
21980;BME280;11154;48.558;9.234;2023-03-25T04:35:58;96956.84;;;11.99;82.09
21980;BME280;11154;48.558;9.234;2023-03-25T04:38:01;96963.66;;;12.01;81.98
21980;BME280;11154;48.558;9.234;2023-03-25T04:40:03;96965.13;;;12.04;81.57
21980;BME280;11154;48.558;9.234;2023-03-25T04:42:08;96964.09;;;12.05;81.62
21980;BME280;11154;48.558;9.234;2023-03-25T04:44:13;96963.91;;;12.06;81.49
21980;BME280;11154;48.558;9.234;2023-03-25T04:46:16;96965.56;;;12.07;81.17
21980;BME280;11154;48.558;9.234;2023-03-25T04:48:22;96963.75;;;12.08;81.00
21980;BME280;11154;48.558;9.234;2023-03-25T04:50:29;96965.38;;;12.09;80.84
21980;BME280;11154;48.558;9.234;2023-03-25T04:52:31;96969.50;;;12.11;80.80
21980;BME280;11154;48.558;9.234;2023-03-25T04:54:32;96966.03;;;12.11;80.52
21980;BME280;11154;48.558;9.234;2023-03-25T04:56:34;96967.03;;;12.10;80.23
21980;BME280;11154;48.558;9.234;2023-03-25T04:58:36;96975.03;;;12.10;80.46
21980;BME280;11154;48.558;9.234;2023-03-25T05:00:39;96977.69;;;12.10;80.22
21980;BME280;11154;48.558;9.234;2023-03-25T05:02:42;96982.22;;;12.09;80.33
21980;BME280;11154;48.558;9.234;2023-03-25T05:04:46;96990.41;;;12.08;80.29
21980;BME280;11154;48.558;9.234;2023-03-25T05:06:48;96989.38;;;12.09;80.22
21980;BME280;11154;48.558;9.234;2023-03-25T05:08:50;96983.22;;;12.08;79.96
21980;BME280;11154;48.558;9.234;2023-03-25T05:10:52;96986.69;;;12.09;79.70
21980;BME280;11154;48.558;9.234;2023-03-25T05:12:57;96984.03;;;12.09;79.65
21980;BME280;11154;48.558;9.234;2023-03-25T05:14:58;96991.41;;;12.07;79.12
21980;BME280;11154;48.558;9.234;2023-03-25T05:17:00;96995.34;;;12.11;79.03
21980;BME280;11154;48.558;9.234;2023-03-25T05:19:02;96981.38;;;12.09;78.80
21980;BME280;11154;48.558;9.234;2023-03-25T05:21:07;96989.22;;;12.10;78.66
21980;BME280;11154;48.558;9.234;2023-03-25T05:23:12;96981.75;;;12.06;78.33
21980;BME280;11154;48.558;9.234;2023-03-25T05:25:17;96989.81;;;11.98;77.36
21980;BME280;11154;48.558;9.234;2023-03-25T05:27:21;96997.44;;;11.86;75.37
21980;BME280;11154;48.558;9.234;2023-03-25T05:29:23;96997.81;;;11.83;76.30
21980;BME280;11154;48.558;9.234;2023-03-25T05:31:24;96999.63;;;11.83;75.80
21980;BME280;11154;48.558;9.234;2023-03-25T05:33:26;96990.63;;;11.84;76.39
21980;BME280;11154;48.558;9.234;2023-03-25T05:35:27;96999.09;;;11.87;76.38
21980;BME280;11154;48.558;9.234;2023-03-25T05:37:31;96997.09;;;11.89;76.05
21980;BME280;11154;48.558;9.234;2023-03-25T05:39:32;96999.09;;;11.87;75.27
21980;BME280;11154;48.558;9.234;2023-03-25T05:41:34;96997.53;;;11.93;76.69
21980;BME280;11154;48.558;9.234;2023-03-25T05:43:38;97005.09;;;12.04;79.35
21980;BME280;11154;48.558;9.234;2023-03-25T05:45:40;97010.16;;;12.13;80.36
21980;BME280;11154;48.558;9.234;2023-03-25T05:47:44;97014.00;;;12.11;77.88
21980;BME280;11154;48.558;9.234;2023-03-25T05:49:46;97015.00;;;12.10;77.09
21980;BME280;11154;48.558;9.234;2023-03-25T05:51:48;97019.34;;;12.11;77.08
21980;BME280;11154;48.558;9.234;2023-03-25T05:53:54;97017.22;;;12.06;75.88
21980;BME280;11154;48.558;9.234;2023-03-25T05:55:56;97025.03;;;12.08;76.97
21980;BME280;11154;48.558;9.234;2023-03-25T05:57:58;97025.66;;;12.10;75.82
21980;BME280;11154;48.558;9.234;2023-03-25T06:00:00;97014.81;;;12.11;76.23
21980;BME280;11154;48.558;9.234;2023-03-25T06:02:02;97015.13;;;12.16;76.62
21980;BME280;11154;48.558;9.234;2023-03-25T06:04:04;97019.88;;;12.21;76.44
21980;BME280;11154;48.558;9.234;2023-03-25T06:06:09;97013.53;;;12.22;77.00
21980;BME280;11154;48.558;9.234;2023-03-25T06:08:13;97013.53;;;12.22;75.87
21980;BME280;11154;48.558;9.234;2023-03-25T06:10:17;97023.00;;;12.24;74.49
21980;BME280;11154;48.558;9.234;2023-03-25T06:12:21;97018.78;;;12.29;74.45
21980;BME280;11154;48.558;9.234;2023-03-25T06:14:26;97013.91;;;12.33;73.59
21980;BME280;11154;48.558;9.234;2023-03-25T06:16:28;97021.38;;;12.37;73.81
21980;BME280;11154;48.558;9.234;2023-03-25T06:18:31;97016.69;;;12.39;72.97
21980;BME280;11154;48.558;9.234;2023-03-25T06:20:32;97018.78;;;12.44;72.60
21980;BME280;11154;48.558;9.234;2023-03-25T06:22:36;97021.44;;;12.44;69.79
21980;BME280;11154;48.558;9.234;2023-03-25T06:24:38;97020.06;;;12.48;71.48
21980;BME280;11154;48.558;9.234;2023-03-25T06:26:42;97017.66;;;12.53;71.97
21980;BME280;11154;48.558;9.234;2023-03-25T06:28:44;97013.34;;;12.52;72.10
21980;BME280;11154;48.558;9.234;2023-03-25T06:30:46;97021.00;;;12.55;72.54
21980;BME280;11154;48.558;9.234;2023-03-25T06:32:48;97020.78;;;12.56;72.19
21980;BME280;11154;48.558;9.234;2023-03-25T06:34:51;97023.28;;;12.58;72.27
21980;BME280;11154;48.558;9.234;2023-03-25T06:36:53;97030.47;;;12.57;72.21
21980;BME280;11154;48.558;9.234;2023-03-25T06:38:54;97044.81;;;12.56;72.42
21980;BME280;11154;48.558;9.234;2023-03-25T06:40:57;97033.13;;;12.57;72.60
21980;BME280;11154;48.558;9.234;2023-03-25T06:43:00;97035.13;;;12.55;72.44
21980;BME280;11154;48.558;9.234;2023-03-25T06:45:02;97024.28;;;12.57;72.43
21980;BME280;11154;48.558;9.234;2023-03-25T06:47:04;97022.63;;;12.56;71.98
21980;BME280;11154;48.558;9.234;2023-03-25T06:49:06;97026.31;;;12.55;71.81
21980;BME280;11154;48.558;9.234;2023-03-25T06:51:07;97018.13;;;12.56;72.21
21980;BME280;11154;48.558;9.234;2023-03-25T06:53:09;97017.94;;;12.58;72.18
21980;BME280;11154;48.558;9.234;2023-03-25T06:55:11;97020.41;;;12.59;72.52
21980;BME280;11154;48.558;9.234;2023-03-25T06:57:13;97016.19;;;12.65;73.18
21980;BME280;11154;48.558;9.234;2023-03-25T06:59:17;97018.50;;;12.68;72.71
21980;BME280;11154;48.558;9.234;2023-03-25T07:01:18;97013.63;;;12.71;73.09
21980;BME280;11154;48.558;9.234;2023-03-25T07:03:20;97019.22;;;12.76;73.33
21980;BME280;11154;48.558;9.234;2023-03-25T07:05:22;97023.78;;;12.82;73.69
21980;BME280;11154;48.558;9.234;2023-03-25T07:07:23;97013.06;;;12.90;73.47
21980;BME280;11154;48.558;9.234;2023-03-25T07:09:25;97002.44;;;12.97;74.28
21980;BME280;11154;48.558;9.234;2023-03-25T07:11:28;97006.38;;;13.00;73.70
21980;BME280;11154;48.558;9.234;2023-03-25T07:13:30;97004.53;;;13.01;73.24
21980;BME280;11154;48.558;9.234;2023-03-25T07:15:33;97009.88;;;13.01;73.74
21980;BME280;11154;48.558;9.234;2023-03-25T07:17:35;97004.53;;;13.01;73.67
21980;BME280;11154;48.558;9.234;2023-03-25T07:19:37;97008.88;;;13.02;73.58
21980;BME280;11154;48.558;9.234;2023-03-25T07:21:39;97001.03;;;13.00;72.40
21980;BME280;11154;48.558;9.234;2023-03-25T07:23:40;97000.41;;;12.98;72.87
21980;BME280;11154;48.558;9.234;2023-03-25T07:25:42;97006.56;;;12.99;73.54
21980;BME280;11154;48.558;9.234;2023-03-25T07:27:44;97010.06;;;12.99;72.59
21980;BME280;11154;48.558;9.234;2023-03-25T07:29:46;97010.06;;;12.99;73.19
21980;BME280;11154;48.558;9.234;2023-03-25T07:31:49;97012.91;;;12.98;72.54
21980;BME280;11154;48.558;9.234;2023-03-25T07:33:51;97008.88;;;13.02;73.13
21980;BME280;11154;48.558;9.234;2023-03-25T07:35:52;97007.22;;;13.01;72.28
21980;BME280;11154;48.558;9.234;2023-03-25T07:37:54;97003.78;;;13.07;73.95
21980;BME280;11154;48.558;9.234;2023-03-25T07:39:56;97002.38;;;13.11;72.67
21980;BME280;11154;48.558;9.234;2023-03-25T07:41:58;97011.84;;;13.13;72.32
21980;BME280;11154;48.558;9.234;2023-03-25T07:43:59;97015.81;;;13.17;72.60
21980;BME280;11154;48.558;9.234;2023-03-25T07:46:02;97015.25;;;13.22;72.09
21980;BME280;11154;48.558;9.234;2023-03-25T07:48:06;97021.47;;;13.29;72.57
21980;BME280;11154;48.558;9.234;2023-03-25T07:50:12;97007.78;;;13.38;73.69
21980;BME280;11154;48.558;9.234;2023-03-25T07:52:14;97005.19;;;13.45;72.63
21980;BME280;11154;48.558;9.234;2023-03-25T07:54:16;97010.78;;;13.50;72.59
21980;BME280;11154;48.558;9.234;2023-03-25T07:56:19;97014.75;;;13.54;72.17
21980;BME280;11154;48.558;9.234;2023-03-25T07:58:21;97013.56;;;13.63;72.67
21980;BME280;11154;48.558;9.234;2023-03-25T08:00:23;97016.56;;;13.74;74.14
21980;BME280;11154;48.558;9.234;2023-03-25T08:02:25;97012.47;;;13.78;71.91
21980;BME280;11154;48.558;9.234;2023-03-25T08:04:28;97011.00;;;13.75;69.50
21980;BME280;11154;48.558;9.234;2023-03-25T08:06:30;96999.31;;;13.76;69.89
21980;BME280;11154;48.558;9.234;2023-03-25T08:08:32;97003.00;;;13.75;69.25
21980;BME280;11154;48.558;9.234;2023-03-25T08:10:34;97014.13;;;13.79;69.46
21980;BME280;11154;48.558;9.234;2023-03-25T08:12:36;97014.75;;;13.81;68.55
21980;BME280;11154;48.558;9.234;2023-03-25T08:14:37;97008.41;;;13.82;69.02
21980;BME280;11154;48.558;9.234;2023-03-25T08:16:39;97000.19;;;13.83;68.50
21980;BME280;11154;48.558;9.234;2023-03-25T08:18:41;97000.16;;;14.04;69.30
21980;BME280;11154;48.558;9.234;2023-03-25T08:20:46;97004.00;;;14.02;67.98
21980;BME280;11154;48.558;9.234;2023-03-25T08:22:48;97013.88;;;14.01;67.66
21980;BME280;11154;48.558;9.234;2023-03-25T08:24:50;97005.22;;;13.99;68.10
21980;BME280;11154;48.558;9.234;2023-03-25T08:26:52;97009.56;;;14.00;68.81
21980;BME280;11154;48.558;9.234;2023-03-25T08:28:54;96999.09;;;14.05;68.36
21980;BME280;11154;48.558;9.234;2023-03-25T08:30:57;97005.63;;;13.96;69.03
21980;BME280;11154;48.558;9.234;2023-03-25T08:33:01;97001.06;;;13.90;69.38
21980;BME280;11154;48.558;9.234;2023-03-25T08:35:04;97000.63;;;13.87;68.63
21980;BME280;11154;48.558;9.234;2023-03-25T08:37:07;97003.91;;;13.89;68.67
21980;BME280;11154;48.558;9.234;2023-03-25T08:39:09;97001.28;;;13.95;69.34
21980;BME280;11154;48.558;9.234;2023-03-25T08:41:12;97002.75;;;13.98;69.67
21980;BME280;11154;48.558;9.234;2023-03-25T08:43:13;96999.88;;;13.99;69.05
21980;BME280;11154;48.558;9.234;2023-03-25T08:45:15;97001.97;;;14.04;68.56
21980;BME280;11154;48.558;9.234;2023-03-25T08:47:17;97006.94;;;14.07;67.38
21980;BME280;11154;48.558;9.234;2023-03-25T08:49:18;97004.44;;;14.05;67.46
21980;BME280;11154;48.558;9.234;2023-03-25T08:51:20;97003.25;;;14.08;66.95
21980;BME280;11154;48.558;9.234;2023-03-25T08:53:24;97004.06;;;14.08;68.15
21980;BME280;11154;48.558;9.234;2023-03-25T08:55:25;96993.25;;;14.16;68.63
21980;BME280;11154;48.558;9.234;2023-03-25T08:57:27;96988.13;;;14.21;68.31
21980;BME280;11154;48.558;9.234;2023-03-25T08:59:29;96995.38;;;14.27;69.10
21980;BME280;11154;48.558;9.234;2023-03-25T09:01:30;96981.38;;;14.25;67.05
21980;BME280;11154;48.558;9.234;2023-03-25T09:03:32;96986.09;;;14.23;66.72
21980;BME280;11154;48.558;9.234;2023-03-25T09:05:35;96991.69;;;14.35;66.89
21980;BME280;11154;48.558;9.234;2023-03-25T09:07:38;96987.75;;;14.64;65.89
21980;BME280;11154;48.558;9.234;2023-03-25T09:09:41;96985.94;;;14.71;65.29
21980;BME280;11154;48.558;9.234;2023-03-25T09:11:43;96984.03;;;14.65;64.17
21980;BME280;11154;48.558;9.234;2023-03-25T09:13:45;96978.47;;;14.60;65.02
21980;BME280;11154;48.558;9.234;2023-03-25T09:15:46;96981.78;;;14.62;65.74
21980;BME280;11154;48.558;9.234;2023-03-25T09:17:48;96981.34;;;14.65;66.86
21980;BME280;11154;48.558;9.234;2023-03-25T09:19:50;96977.69;;;14.73;65.47
21980;BME280;11154;48.558;9.234;2023-03-25T09:21:51;96976.03;;;14.72;64.67
21980;BME280;11154;48.558;9.234;2023-03-25T09:23:53;96987.19;;;14.75;65.56
21980;BME280;11154;48.558;9.234;2023-03-25T09:25:59;96978.94;;;14.77;64.02
21980;BME280;11154;48.558;9.234;2023-03-25T09:28:01;96964.53;;;14.78;65.57
21980;BME280;11154;48.558;9.234;2023-03-25T09:30:04;96959.81;;;14.80;64.57
21980;BME280;11154;48.558;9.234;2023-03-25T09:32:06;96966.56;;;14.76;65.25
21980;BME280;11154;48.558;9.234;2023-03-25T09:34:08;96968.22;;;14.70;64.45
21980;BME280;11154;48.558;9.234;2023-03-25T09:36:10;96975.41;;;14.63;63.08
21980;BME280;11154;48.558;9.234;2023-03-25T09:38:12;96971.03;;;14.56;63.27
21980;BME280;11154;48.558;9.234;2023-03-25T09:40:15;96968.59;;;14.61;64.28
21980;BME280;11154;48.558;9.234;2023-03-25T09:42:50;96972.28;;;14.60;65.80
21980;BME280;11154;48.558;9.234;2023-03-25T09:45:05;96974.75;;;14.61;66.34
21980;BME280;11154;48.558;9.234;2023-03-25T09:47:16;96971.88;;;14.63;66.61
21980;BME280;11154;48.558;9.234;2023-03-25T09:49:22;96978.88;;;14.64;65.84
21980;BME280;11154;48.558;9.234;2023-03-25T09:51:27;96972.50;;;14.65;65.40
21980;BME280;11154;48.558;9.234;2023-03-25T09:53:34;96980.53;;;14.65;65.96
21980;BME280;11154;48.558;9.234;2023-03-25T09:55:39;96975.81;;;14.67;65.91
21980;BME280;11154;48.558;9.234;2023-03-25T09:57:45;96971.06;;;14.69;65.19
21980;BME280;11154;48.558;9.234;2023-03-25T09:59:51;96968.59;;;14.67;64.33
21980;BME280;11154;48.558;9.234;2023-03-25T10:01:58;96971.28;;;14.67;64.41
21980;BME280;11154;48.558;9.234;2023-03-25T10:04:16;96981.34;;;14.65;65.05
21980;BME280;11154;48.558;9.234;2023-03-25T10:06:23;96969.19;;;14.63;66.73
21980;BME280;11154;48.558;9.234;2023-03-25T10:08:35;96977.66;;;14.60;67.16
21980;BME280;11154;48.558;9.234;2023-03-25T10:10:46;96976.38;;;14.56;67.78
21980;BME280;11154;48.558;9.234;2023-03-25T10:12:58;96976.78;;;14.53;68.34
21980;BME280;11154;48.558;9.234;2023-03-25T10:15:13;96968.34;;;14.49;69.44
21980;BME280;11154;48.558;9.234;2023-03-25T10:17:27;96986.84;;;14.44;69.48
21980;BME280;11154;48.558;9.234;2023-03-25T10:19:42;96984.31;;;14.37;71.08
21980;BME280;11154;48.558;9.234;2023-03-25T10:21:55;96980.81;;;14.36;71.61
21980;BME280;11154;48.558;9.234;2023-03-25T10:24:05;96979.16;;;14.35;73.45
21980;BME280;11154;48.558;9.234;2023-03-25T10:26:14;96984.28;;;14.30;72.94
21980;BME280;11154;48.558;9.234;2023-03-25T10:28:26;96982.81;;;14.28;71.64
21980;BME280;11154;48.558;9.234;2023-03-25T10:30:31;96998.44;;;14.24;70.30
21980;BME280;11154;48.558;9.234;2023-03-25T10:32:37;97002.16;;;14.23;72.96
21980;BME280;11154;48.558;9.234;2023-03-25T10:34:43;97005.19;;;14.20;74.63
21980;BME280;11154;48.558;9.234;2023-03-25T10:36:51;96993.06;;;14.18;73.98
21980;BME280;11154;48.558;9.234;2023-03-25T10:38:54;96995.50;;;14.13;74.59
21980;BME280;11154;48.558;9.234;2023-03-25T10:41:04;97002.19;;;14.09;75.39
21980;BME280;11154;48.558;9.234;2023-03-25T10:43:16;97006.50;;;14.03;76.77
21980;BME280;11154;48.558;9.234;2023-03-25T10:45:21;97005.88;;;14.01;77.25
21980;BME280;11154;48.558;9.234;2023-03-25T10:47:27;97003.19;;;14.01;77.51
21980;BME280;11154;48.558;9.234;2023-03-25T10:49:30;97009.69;;;14.13;78.41
21980;BME280;11154;48.558;9.234;2023-03-25T10:51:34;97017.78;;;14.26;78.70
21980;BME280;11154;48.558;9.234;2023-03-25T10:53:36;97021.13;;;14.35;78.07
21980;BME280;11154;48.558;9.234;2023-03-25T10:55:40;97015.63;;;14.43;78.05
21980;BME280;11154;48.558;9.234;2023-03-25T10:57:42;97016.69;;;14.48;77.19
21980;BME280;11154;48.558;9.234;2023-03-25T10:59:52;97001.88;;;14.52;73.65
21980;BME280;11154;48.558;9.234;2023-03-25T11:01:58;96994.34;;;14.68;77.02